WetterOnline ( https://www.wetteronline.de )

Wetter aktuell Norderney

Aktuelles Wetter: Norderney (16m)

6-stündlich | Neueste Meldungen
Ortszeit Temperatur Wetter
Do, 29.02. 7:00 5.7° C bewölkt
Do, 29.02. 1:00 6.8° C bedeckt
Mi, 28.02. 19:00 6.4° C bedeckt
Mi, 28.02. 13:00 6.0° C bedeckt
Mi, 28.02. 7:00 3.3° C bedeckt
Mi, 28.02. 1:00 3.0° C bedeckt
Di, 27.02. 19:00 4.1° C bedeckt
Di, 27.02. 13:00 3.8° C wolkenlos
Ortszeit Temperatur Wetter
Do, 29.02. 10:00 5.9° C leichter Regen
Do, 29.02. 9:50 5.9° C leichter Regen
Do, 29.02. 9:40 5.8° C leichter Regen
Do, 29.02. 9:30 5.7° C leichter Regen
Do, 29.02. 9:20 5.7° C leichter Regen
Do, 29.02. 9:10 5.7° C leichter Regen
Do, 29.02. 9:00 5.9° C leichter Regen
Do, 29.02. 8:30 6.1° C bedeckt
Do, 29.02. 8:00 5.9° C bedeckt
Do, 29.02. 7:30 5.7° C bedeckt
Do, 29.02. 7:00 5.7° C bewölkt
Ortszeit Relative Feuchte Sichtweite
Do, 29.02. 7:00 90% 12 km
Do, 29.02. 1:00 86% 9 km
Mi, 28.02. 19:00 91% 7 km
Mi, 28.02. 13:00 92% 5.0 km
Mi, 28.02. 7:00 96% 3.4 km
Mi, 28.02. 1:00 91% 7 km
Di, 27.02. 19:00 81% 25 km
Di, 27.02. 13:00 81% 35 km
Ortszeit Relative Feuchte Sichtweite
Do, 29.02. 10:00 97% 3.7 km
Do, 29.02. 9:50 97% -
Do, 29.02. 9:40 96% -
Do, 29.02. 9:30 95% 3.2 km
Do, 29.02. 9:20 95% -
Do, 29.02. 9:10 95% -
Do, 29.02. 9:00 91% 4.4 km
Do, 29.02. 8:30 86% 21 km
Do, 29.02. 8:00 88% 18 km
Do, 29.02. 7:30 88% 15 km
Do, 29.02. 7:00 90% 12 km
Ortszeit Niederschlagsmenge Niederschlagsart
Do, 29.02. 7:00 0.1 l/m2 in 12 Std. Sprühregen
Do, 29.02. 1:00 0.0 l/m2 in 6 Std. -
Mi, 28.02. 19:00 0.0 l/m2 in 12 Std. -
Mi, 28.02. 13:00 0.0 l/m2 in 6 Std. -
Mi, 28.02. 7:00 0.1 l/m2 in 12 Std. Regen
Mi, 28.02. 1:00 0.0 l/m2 in 6 Std. -
Di, 27.02. 19:00 0.0 l/m2 in 12 Std. -
Di, 27.02. 13:00 0.0 l/m2 in 6 Std. -
Ortszeit Niederschlagsmenge Niederschlagsart
Do, 29.02. 10:00 0.4 l/m2 in 1 Std. Regen
Do, 29.02. 9:50 keine Meldung -
Do, 29.02. 9:40 keine Meldung -
Do, 29.02. 9:30 0.1 l/m2 in 30 Min -
Do, 29.02. 9:20 keine Meldung -
Do, 29.02. 9:10 keine Meldung -
Do, 29.02. 9:00 <0.05 l/m2 in 1 Std. Regen
Do, 29.02. 8:30 0.0 l/m2 in 30 Min -
Do, 29.02. 8:00 <0.05 l/m2 in 1 Std. Sprühregen
Do, 29.02. 7:30 <0.05 l/m2 in 30 Min Schnee
Do, 29.02. 7:00 <0.05 l/m2 in 1 Std. Sprühregen
Ortszeit Stärke Spitze Richtung
km/h Bft. km/h Grad Sektor
Do, 29.02. 7:00 26 4 46 170° S
Do, 29.02. 1:00 22 4 40 170° S
Mi, 28.02. 19:00 19 3 33 170° S
Mi, 28.02. 13:00 17 3 33 200° S
Mi, 28.02. 7:00 20 4 33 190° S
Mi, 28.02. 1:00 17 3 30 180° S
Di, 27.02. 19:00 7 2 18 160° S
Di, 27.02. 13:00 14 3 25 130° SO
Ortszeit Stärke Spitze Richtung
km/h Bft. km/h Grad Sektor
Do, 29.02. 10:00 22 4 44 180° S
Do, 29.02. 9:50 22 4 - 180° S
Do, 29.02. 9:40 22 4 - 180° S
Do, 29.02. 9:30 25 4 43 170° S
Do, 29.02. 9:20 25 4 - 170° S
Do, 29.02. 9:10 26 4 - 180° S
Do, 29.02. 9:00 29 5 43 170° S
Do, 29.02. 8:30 25 4 43 180° S
Do, 29.02. 8:00 28 4 44 180° S
Do, 29.02. 7:30 28 4 44 180° S
Do, 29.02. 7:00 26 4 46 170° S
Ortszeit Untergrenze Bedeckung Gattung
total tief tief mittel hoch
Do, 29.02. 7:00 330 m 7/8 7/8 - - -
Do, 29.02. 1:00 510 m 8/8 8/8 - - -
Mi, 28.02. 19:00 3300 m 8/8 8/8 - - -
Mi, 28.02. 13:00 120 m 8/8 8/8 - - -
Mi, 28.02. 7:00 - 8/8 - - - -
Mi, 28.02. 1:00 360 m 8/8 8/8 - - -
Di, 27.02. 19:00 510 m 8/8 8/8 - - -
Di, 27.02. 13:00 - 0/8 0/8 - - -
Ortszeit Bedeckungsgrad in Achtel und Wolkenuntergrenze
Do, 29.02. 10:00 6(270m)
Do, 29.02. 9:50 6(270m)
Do, 29.02. 9:40 8
Do, 29.02. 9:30 7(240m) 7(360m)
Do, 29.02. 9:20 7(240m) 7(360m)
Do, 29.02. 9:10 7
Do, 29.02. 9:00 8(450m)
Do, 29.02. 8:30 7(360m) 8(630m)
Do, 29.02. 8:00 8(330m)
Do, 29.02. 7:30 8(300m)
Do, 29.02. 7:00 7(330m) 7(660m)
Ortszeit Luftdruck NN (hPa) Tendenz (hPa in 3 Std.)
Do, 29.02. 7:00 1009 - 2,3
Do, 29.02. 1:00 1015 - 2,1
Mi, 28.02. 19:00 1018 - 0,9
Mi, 28.02. 13:00 1020 - 0,1
Mi, 28.02. 7:00 1019 + 0,1
Mi, 28.02. 1:00 1019 0,0
Di, 27.02. 19:00 1019 + 0,1
Di, 27.02. 13:00 1020 - 0,2
Ortszeit Luftdruck NN (hPa) Tendenz (hPa in 3 Std.)
Do, 29.02. 10:00 1009 - 0,1
Do, 29.02. 9:50 1009 keine Meldung
Do, 29.02. 9:40 1009 keine Meldung
Do, 29.02. 9:30 1010 - 0,3
Do, 29.02. 9:20 1010 keine Meldung
Do, 29.02. 9:10 1010 keine Meldung
Do, 29.02. 9:00 1010 - 0,5
Do, 29.02. 8:30 1010 - 0,6
Do, 29.02. 8:00 1010 - 1,2
Do, 29.02. 7:30 1010 - 1,5
Do, 29.02. 7:00 1009 - 2,3
Ortszeit Schneehöhe (cm)
Do, 29.02. 7:00 -
Do, 29.02. 1:00 -
Mi, 28.02. 19:00 -
Mi, 28.02. 13:00 -
Mi, 28.02. 7:00 -
Mi, 28.02. 1:00 -
Di, 27.02. 19:00 -
Di, 27.02. 13:00 -
Ortszeit Schneehöhe (cm)
Do, 29.02. 10:00 -
Do, 29.02. 9:50 -
Do, 29.02. 9:40 -
Do, 29.02. 9:30 -
Do, 29.02. 9:20 -
Do, 29.02. 9:10 -
Do, 29.02. 9:00 -
Do, 29.02. 8:30 -
Do, 29.02. 8:00 -
Do, 29.02. 7:30 -
Do, 29.02. 7:00 -
Link zu dieser Seite / Seite empfehlen

Das Wetter in ...